Lincoln, NE (68520)

10:09 AM CDT on July 27, 2016 (GMT -0500)
Dove Landing Vineyard | | Change Station

Elev 1200 ft 40.81 °N, 96.56 °W | Updated 5 seconds ago

Mostly Cloudy
Mostly Cloudy
76.9 °F
Feels Like 79 °F
N
3.3
Wind Variable Wind from NW
Gusts 7.0 mph

Today
High -- | Low -- °F
--% Chance of Precip.
Yesterday
High -- | Low -- °F
Precip. -- in
Pressure 30.01 in
Visibility 10.0 miles
Clouds Mostly Cloudy 3500 ft
Heat Index 79 °F
Dew Point 69 °F
Humidity 76%
Rainfall 0.00 in
Snow Depth Not available.
6:18 AM 8:46 PM
Last Quarter, 42% visible
METAR KLNK 271454Z 33007KT 10SM BKN035 27/17 A3004 RMK AO2 SLP161 T02670172 51037
Pressure 30.01 in
Visibility 10.0 miles
Clouds Mostly Cloudy 3500 ft
Heat Index 79 °F
Dew Point 69 °F
Humidity 76%
Rainfall 0.00 in
Snow Depth Not available.
6:18 AM 8:46 PM
Last Quarter, 42% visible
METAR KLNK 271454Z 33007KT 10SM BKN035 27/17 A3004 RMK AO2 SLP161 T02670172 51037

10-Day Weather Forecast

Almanac

Astronomy

Jul. 27, 2016 Rise Set
Actual Time
Civil Twilight
Nautical Twilight
Astronomical Twilight
Moon
Length of Visible Light
Length of Day
Tomorrow will be .
, % of the Moon is Illuminated

Today's Extremes

State Highs State Lows

Community

WunderPhotos

Upload Photos

1,927,858 photos uploaded!

WunderBlog® & News

Nearby

Air Quality

  Air Quality AQ Index Pollutant
Not available.

Snow Depth

Station Depth Elevation

Earthquake Activity

City Distance Mag. Time & Date
Minimum magnitude displayed is 2.5.

Coastal Water Temperatures

Place Temperature

Stations

Nearby Weather Stations

Station Location Temp. Windchill Dew Point Humidity Wind Precip. Elev Updated Type
                   

Watches & Warnings

There are currently no watches in effect.